メインページ
METAR-TAF:

METAR-TAF

空港 :

仁川国際空港, 大韓民国

緯度: 37-28N, 経度: 126-27E, 海抜: 7m

現時点の気象観測

当レポートは33分前の16:00(UTC)に作成
北西の風 1kt
気温 21°C
湿度 88%
気圧 1008 hPa
視程: 7000m

METAR: RKSI 221600Z 31001KT 7000 NSC 21/19 Q1008 NOSIG

時間: 01:33 (16:33 UTC)

予報

当レポートは5時間33分前の11:00(UTC)に作成
予報は22日の 12時(UTC)から 23日の 18時(UTC)まで有効
西/北西の風 6kt
視程: 6000m
高度1000ftの雲はほとんどない
高度3000ftの雲は散在している
22日の 15時(UTC)から 22日の 16時(UTC)まで徐々に
の風 6kt
視程: 3500m
22日の 19時(UTC)から 22日の 22時(UTC)まで一時的に
視程: 0800m
高度300ftの千切れ雲あり
23日の 00時(UTC)から 23日の 01時(UTC)まで徐々に
南/南西の風 7kt
視程: 6000m
23日の 02時(UTC)から 23日の 03時(UTC)まで徐々に
西の風 8kt
23日の 15時(UTC)から 23日の 16時(UTC)まで徐々に
南/南東の風 6kt
視程: 4200m

TAF: RKSI 221100Z 2212/2318 30006KT 6000 FEW010 SCT030 TN19/2221Z TX27/2305Z BECMG 2215/2216 17006KT 3500 BR TEMPO 2219/2222 0800 FG BKN003 BECMG 2300/2301 21007KT 6000 NSW BECMG 2302/2303 27008KT BECMG 2315/2316 16006KT 4200 BR

4,000以上の空港の気象観測と天気予報(METAR報とTAF報)

利用可能な観測所は地図上に黄色い丸と赤い丸で示す。

丸の上にカーソルを重ねると観測所名を参照できる。

次にクリックすると気象観測と天気予報を参照できる。

マップの切り替え:黒色「×」印の緑ボタンをクリックして拡大、「-」印の緑ボタンをクリックして縮小、緑色の三角印をクリックして隣りの地図に切り替え


METAR-TAF: